Time;durP1;ratioP1;P1;durP2;ratioP2;P2;SDS_P1;SDS_P2;PMS_P1;PMS_P2;Temp;Humidity;BMP_temperature;BMP_pressure;BME280_temperature;BME280_humidity;BME280_pressure;Samples;Min_cycle;Max_cycle;Signal;HPM_P1;HPM_P2
2022/06/27 00:00:23;;;;;;;3.10;2.80;;;;;;;19.92;73.18;101071.84;4995281;28;103953;-49
2022/06/27 00:02:52;;;;;;;3.03;2.83;;;;;;;19.93;73.28;101078.19;4996196;28;101960;-48
2022/06/27 00:05:18;;;;;;;3.28;2.97;;;;;;;19.90;73.09;101079.63;4995733;28;102306;-48
2022/06/27 00:07:45;;;;;;;3.25;3.03;;;;;;;19.91;73.28;101074.97;4996545;28;102317;-48
2022/06/27 00:10:12;;;;;;;3.15;2.85;;;;;;;19.93;73.13;101076.22;4994549;28;103820;-48
2022/06/27 00:12:41;;;;;;;3.38;2.60;;;;;;;19.91;73.32;101070.25;4995449;28;102528;-47
2022/06/27 00:15:09;;;;;;;3.65;3.00;;;;;;;19.92;73.24;101079.34;4993975;28;102061;-49
2022/06/27 00:17:36;;;;;;;2.90;2.70;;;;;;;19.91;73.32;101075.75;4996557;28;102073;-48
2022/06/27 00:20:03;;;;;;;2.80;2.60;;;;;;;19.91;73.28;101075.75;4996158;28;103954;-47
2022/06/27 00:22:31;;;;;;;3.30;3.00;;;;;;;19.91;73.24;101070.25;4996135;28;102051;-46
2022/06/27 00:24:57;;;;;;;2.97;2.67;;;;;;;19.90;73.31;101068.59;4995703;28;102015;-48
2022/06/27 00:27:25;;;;;;;2.90;2.70;;;;;;;19.92;73.34;101076.56;4993503;28;102222;-49
2022/06/27 00:29:53;;;;;;;3.20;2.88;;;;;;;19.91;73.18;101064.72;4986291;28;103950;-48
2022/06/27 00:32:21;;;;;;;3.00;2.80;;;;;;;19.91;73.17;101073.00;4996525;28;102164;-49
2022/06/27 00:34:48;;;;;;;;;;;;;;;19.91;73.34;101070.25;4996713;28;101956;-48
2022/06/27 00:37:15;;;;;;;3.22;2.80;;;;;;;19.91;73.40;101053.66;4997871;28;102119;-49
2022/06/27 00:39:41;;;;;;;3.75;3.15;;;;;;;19.91;73.40;101052.84;4994950;28;103920;-49
2022/06/27 00:42:08;;;;;;;2.97;2.78;;;;;;;19.91;73.36;101058.38;4996250;28;102041;-47
2022/06/27 00:44:36;;;;;;;3.10;2.90;;;;;;;19.90;73.40;101051.22;4995174;28;102151;-46
2022/06/27 00:47:05;;;;;;;2.93;2.73;;;;;;;19.91;73.51;101059.19;4992984;28;102225;-48
2022/06/27 00:49:33;;;;;;;3.17;2.88;;;;;;;19.91;73.23;101055.63;4994365;28;103894;-47
2022/06/27 00:52:00;;;;;;;3.13;2.90;;;;;;;19.90;73.53;101057.53;4993355;28;102173;-48
2022/06/27 00:54:26;;;;;;;3.08;2.88;;;;;;;19.90;73.37;101054.78;4994863;28;102298;-48
2022/06/27 00:56:53;;;;;;;3.25;3.00;;;;;;;19.90;73.37;101057.53;4996226;28;102445;-47
2022/06/27 00:59:20;;;;;;;3.58;3.28;;;;;;;19.90;73.25;101052.03;4994089;28;103913;-48
2022/06/27 01:01:47;;;;;;;3.28;3.00;;;;;;;19.89;73.55;101042.13;4993917;28;102562;-48
2022/06/27 01:04:15;;;;;;;3.97;2.92;;;;;;;19.90;73.34;101046.50;4992297;28;102432;-49
2022/06/27 01:06:42;;;;;;;3.13;2.92;;;;;;;19.89;73.51;101044.88;4996604;28;102242;-48
2022/06/27 01:09:09;;;;;;;3.25;3.00;;;;;;;19.89;73.48;101044.88;4996563;28;104056;-48
2022/06/27 01:11:36;;;;;;;3.70;3.40;;;;;;;19.90;73.48;101046.50;4998285;28;102287;-48
2022/06/27 01:14:02;;;;;;;3.00;2.80;;;;;;;19.89;73.62;101047.66;4997997;28;101954;-48
2022/06/27 01:16:29;;;;;;;3.28;3.05;;;;;;;19.90;73.41;101052.03;4998524;28;102162;-47
2022/06/27 01:18:56;;;;;;;3.22;3.03;;;;;;;19.89;73.17;101053.16;4997329;28;103914;-48
2022/06/27 01:21:26;;;;;;;3.22;3.03;;;;;;;19.90;73.20;101060.31;4996650;28;102686;-48
2022/06/27 01:23:53;;;;;;;3.22;3.03;;;;;;;19.89;73.24;101047.66;4997433;28;102247;-48
2022/06/27 01:26:22;;;;;;;3.13;2.83;;;;;;;19.89;73.53;101044.88;4996620;28;102215;-47
2022/06/27 01:28:49;;;;;;;3.20;3.00;;;;;;;19.89;73.42;101047.66;4996371;28;103881;-49
2022/06/27 01:31:16;;;;;;;3.20;3.00;;;;;;;19.90;73.47;101051.22;4997834;28;102016;-48
2022/06/27 01:33:43;;;;;;;3.08;2.88;;;;;;;19.89;73.50;101044.88;4995965;28;102382;-48
2022/06/27 01:38:56;;;;;;;3.38;3.13;;;;;;;19.90;73.31;101046.50;4996684;28;103909;-48
2022/06/27 01:41:22;;;;;;;2.93;2.73;;;;;;;19.89;73.21;101050.41;4997447;28;102218;-48
2022/06/27 01:43:49;;;;;;;3.53;3.33;;;;;;;19.89;73.44;101050.41;4996384;28;102053;-47
2022/06/27 01:46:16;;;;;;;3.28;3.03;;;;;;;19.90;73.06;101045.69;4997571;28;102145;-48
2022/06/27 01:48:44;;;;;;;3.45;3.15;;;;;;;19.90;73.35;101045.69;4995088;28;104021;-48
2022/06/27 01:51:11;;;;;;;3.17;2.97;;;;;;;19.89;73.38;101050.41;4996358;28;102579;-48
2022/06/27 01:53:38;;;;;;;3.50;3.20;;;;;;;19.89;73.52;101050.41;4997536;28;102377;-48
2022/06/27 01:56:07;;;;;;;3.03;2.83;;;;;;;19.89;73.19;101044.88;4998160;28;102215;-49
2022/06/27 01:58:34;;;;;;;3.90;3.00;;;;;;;19.89;73.37;101053.16;4995857;28;108006;-48
2022/06/27 02:01:01;;;;;;;3.28;3.00;;;;;;;19.89;73.19;101049.59;4996637;28;102159;-48
2022/06/27 02:03:27;;;;;;;3.50;3.20;;;;;;;19.89;73.42;101050.41;4980547;28;101852;-49
2022/06/27 02:05:56;;;;;;;4.28;3.30;;;;;;;19.89;73.29;101052.34;4997162;28;102304;-49
2022/06/27 02:08:25;;;;;;;3.25;2.95;;;;;;;19.89;73.35;101044.88;4994496;28;103932;-48
2022/06/27 02:10:51;;;;;;;3.45;3.15;;;;;;;19.89;73.58;101050.41;4994902;28;102234;-47
2022/06/27 02:13:20;;;;;;;3.22;3.03;;;;;;;19.90;73.25;101062.25;4996827;28;102474;-48
2022/06/27 02:16:07;;;;;;;3.63;3.33;;;;;;;19.89;73.27;101064.22;4998217;28;102438;-49
2022/06/27 02:18:34;;;;;;;3.03;2.83;;;;;;;19.90;73.45;101052.03;4995269;28;104097;-48
2022/06/27 02:21:01;;;;;;;3.42;3.13;;;;;;;19.90;73.25;101065.03;4996718;28;102074;-47
2022/06/27 02:23:28;;;;;;;3.88;3.20;;;;;;;19.89;73.40;101055.94;4996357;28;102185;-50
2022/06/27 02:25:55;;;;;;;3.17;2.97;;;;;;;19.89;73.38;101055.94;4996843;28;102694;-48
2022/06/27 02:28:27;;;;;;;4.18;3.50;;;;;;;19.89;73.59;101053.16;4996460;28;103868;-48
2022/06/27 02:30:54;;;;;;;2.65;2.47;;;;;;;19.90;73.44;101056.75;4996242;28;102072;-48
2022/06/27 02:33:22;;;;;;;3.10;2.90;;;;;;;19.89;73.22;101055.94;4996808;28;102067;-47
2022/06/27 02:35:49;;;;;;;3.40;3.15;;;;;;;19.90;73.40;101054.78;4997725;28;102341;-47
2022/06/27 02:38:18;;;;;;;4.07;3.10;;;;;;;19.91;73.52;101050.09;4996869;28;103930;-47
2022/06/27 02:40:47;;;;;;;3.33;3.13;;;;;;;19.89;73.21;101050.41;4993524;28;102410;-47
2022/06/27 02:43:15;;;;;;;3.60;3.30;;;;;;;19.90;73.54;101051.22;4993800;28;102028;-49
2022/06/27 02:45:45;;;;;;;3.60;3.30;;;;;;;19.89;73.30;101047.66;4997446;28;102486;-48
2022/06/27 02:48:12;;;;;;;3.10;2.88;;;;;;;19.90;73.41;101051.22;4996505;28;104001;-48
2022/06/27 02:50:42;;;;;;;3.00;2.80;;;;;;;19.90;73.37;101046.50;4995267;28;102182;-49
2022/06/27 02:53:11;;;;;;;3.22;3.03;;;;;;;19.90;73.53;101051.22;4996449;28;102202;-48
2022/06/27 02:55:41;;;;;;;3.53;3.22;;;;;;;19.90;73.36;101052.03;4996965;28;102578;-49
2022/06/27 02:58:10;;;;;;;3.40;3.20;;;;;;;19.90;73.29;101052.03;4995837;28;104068;-48
2022/06/27 03:00:40;;;;;;;3.28;2.97;;;;;;;19.90;73.23;101052.03;4995991;28;102335;-47
2022/06/27 03:03:11;;;;;;;2.67;2.47;;;;;;;19.90;73.27;101051.22;4995501;28;102190;-48
2022/06/27 03:05:56;;;;;;;3.25;2.97;;;;;;;19.90;73.27;101046.50;4996834;28;102040;-46
2022/06/27 03:08:23;;;;;;;3.33;2.85;;;;;;;19.89;73.55;101050.41;4977310;28;104081;-48
2022/06/27 03:10:50;;;;;;;2.83;2.63;;;;;;;19.90;73.29;101046.50;4995657;28;102256;-48
2022/06/27 03:13:16;;;;;;;3.40;3.10;;;;;;;19.90;73.33;101052.03;4995885;28;102634;-49
2022/06/27 03:15:43;;;;;;;3.58;3.28;;;;;;;19.91;73.58;101067.47;4994947;28;102378;-48
2022/06/27 03:18:13;;;;;;;3.85;3.55;;;;;;;19.90;73.17;101054.78;4994926;28;103848;-49
2022/06/27 03:20:40;;;;;;;3.47;3.17;;;;;;;19.91;73.23;101058.38;4993856;28;102250;-49
2022/06/27 03:23:06;;;;;;;3.30;3.10;;;;;;;19.90;73.10;101057.53;4996107;28;102167;-47
2022/06/27 03:25:33;;;;;;;3.17;2.97;;;;;;;19.92;73.34;101055.28;4996500;28;102098;-47
2022/06/27 03:27:59;;;;;;;3.20;2.95;;;;;;;19.91;73.25;101059.19;4995645;28;103838;-48
2022/06/27 03:30:26;;;;;;;3.53;3.05;;;;;;;19.91;73.42;101056.44;4994709;28;102093;-48
2022/06/27 03:32:52;;;;;;;3.15;2.95;;;;;;;19.91;73.29;101067.47;4994766;28;102370;-48
2022/06/27 03:35:20;;;;;;;3.35;3.05;;;;;;;19.91;73.43;101075.75;4995688;28;102372;-50
2022/06/27 03:37:47;;;;;;;3.63;3.33;;;;;;;19.91;73.25;101075.75;4995667;28;103944;-48
2022/06/27 03:40:13;;;;;;;3.00;2.80;;;;;;;19.91;73.07;101080.47;4995452;28;105004;-47
2022/06/27 03:42:40;;;;;;;3.80;3.50;;;;;;;19.91;73.28;101075.75;4995126;28;102472;-48
2022/06/27 03:45:08;;;;;;;3.22;3.03;;;;;;;19.91;73.18;101070.25;4995953;28;102310;-48
2022/06/27 03:47:45;;;;;;;3.10;2.90;;;;;;;19.91;73.20;101084.06;4995291;28;104012;-48
2022/06/27 03:50:13;;;;;;;3.00;2.70;;;;;;;19.92;73.07;101077.38;4995135;28;103644;-49
2022/06/27 03:52:41;;;;;;;2.90;2.70;;;;;;;19.92;73.32;101085.66;4995063;28;102310;-48
2022/06/27 03:55:08;;;;;;;3.73;2.87;;;;;;;19.93;73.53;101089.22;4996299;28;102428;-46
2022/06/27 03:57:35;;;;;;;3.30;3.00;;;;;;;19.92;73.32;101088.44;4994557;28;104000;-48
2022/06/27 04:00:03;;;;;;;3.30;3.03;;;;;;;19.92;73.22;101093.94;4994934;28;102279;-47
2022/06/27 04:02:30;;;;;;;3.30;3.10;;;;;;;19.92;73.41;101096.72;4994890;28;102254;-47
2022/06/27 04:04:56;;;;;;;2.88;2.67;;;;;;;19.92;73.33;101088.44;4992627;28;102505;-49
2022/06/27 04:07:23;;;;;;;3.00;2.80;;;;;;;19.94;73.41;101096.38;4993364;28;104048;-48
2022/06/27 04:09:51;;;;;;;4.13;3.28;;;;;;;19.92;73.29;101096.72;4994578;28;102653;-49
2022/06/27 04:12:17;;;;;;;3.85;3.00;;;;;;;19.92;73.16;101093.94;4992571;28;102544;-48
2022/06/27 04:14:44;;;;;;;3.05;2.75;;;;;;;19.93;73.11;101106.63;4994548;28;102163;-48
2022/06/27 04:17:11;;;;;;;2.90;2.70;;;;;;;19.93;73.22;101098.34;4994265;28;104227;-48
2022/06/27 04:19:38;;;;;;;3.50;3.20;;;;;;;19.93;73.32;101103.84;4994558;28;102153;-47
2022/06/27 04:22:05;;;;;;;3.47;3.17;;;;;;;19.93;73.21;101101.09;4994073;28;101993;-47
2022/06/27 04:24:31;;;;;;;3.47;3.28;;;;;;;19.95;73.07;101102.75;4996440;28;102285;-48
2022/06/27 04:26:59;;;;;;;3.17;2.97;;;;;;;19.95;73.21;101099.97;4993967;28;104038;-48
2022/06/27 04:29:26;;;;;;;2.73;2.53;;;;;;;19.94;73.14;101104.66;4993183;28;101991;-47
2022/06/27 04:31:53;;;;;;;2.85;2.65;;;;;;;19.96;73.34;101104.34;4994905;28;102602;-48
2022/06/27 04:34:19;;;;;;;3.03;2.83;;;;;;;19.96;73.13;101109.88;4995405;28;102054;-48
2022/06/27 04:36:46;;;;;;;3.08;2.88;;;;;;;19.95;73.31;101102.75;4993829;28;103924;-48
2022/06/27 04:39:17;;;;;;;2.83;2.63;;;;;;;19.96;73.23;101101.59;4994277;28;102377;-49
2022/06/27 04:41:45;;;;;;;2.97;2.78;;;;;;;19.97;73.26;101100.44;4994974;28;102028;-48
2022/06/27 04:44:13;;;;;;;2.97;2.77;;;;;;;19.97;73.12;101100.44;4999518;28;102075;-48
2022/06/27 04:46:40;;;;;;;3.55;3.30;;;;;;;19.97;73.29;101106.78;4998209;28;103905;-47
2022/06/27 04:49:08;;;;;;;3.05;2.85;;;;;;;19.96;73.11;101099.63;4998251;28;101922;-48
2022/06/27 04:51:35;;;;;;;3.15;2.95;;;;;;;19.96;73.52;101099.63;4996886;28;102482;-48
2022/06/27 04:54:02;;;;;;;3.15;2.95;;;;;;;19.97;73.30;101103.22;4998410;28;102436;-48
2022/06/27 04:56:30;;;;;;;3.28;3.08;;;;;;;19.96;73.36;101099.63;4997261;28;104036;-49
2022/06/27 04:58:57;;;;;;;3.00;2.80;;;;;;;19.97;73.26;101100.44;4998176;28;102125;-48
2022/06/27 05:01:24;;;;;;;3.30;3.00;;;;;;;19.98;73.22;101102.06;4996491;28;102327;-48
2022/06/27 05:03:51;;;;;;;4.00;2.97;;;;;;;19.97;73.49;101101.25;4998107;28;102300;-47
2022/06/27 05:06:18;;;;;;;2.80;2.60;;;;;;;19.96;73.43;101099.63;4995385;28;104205;-48
2022/06/27 05:08:44;;;;;;;3.28;2.97;;;;;;;19.98;73.30;101107.59;4997111;28;102005;-49
2022/06/27 05:11:12;;;;;;;4.35;3.88;;;;;;;19.97;73.43;101101.25;4997351;28;102368;-49
2022/06/27 05:13:38;;;;;;;3.30;3.10;;;;;;;19.97;73.32;101094.94;4999448;28;102417;-48
2022/06/27 05:16:05;;;;;;;3.45;3.15;;;;;;;19.98;73.36;101091.00;4996724;28;103764;-48
2022/06/27 05:18:33;;;;;;;3.10;2.90;;;;;;;19.97;73.26;101090.22;4998029;28;102579;-49
2022/06/27 05:20:59;;;;;;;3.30;2.80;;;;;;;19.98;73.14;101085.50;4995061;28;103698;-49
2022/06/27 05:23:26;;;;;;;2.95;2.75;;;;;;;19.97;73.30;101078.34;4999024;28;102200;-48
2022/06/27 05:25:52;;;;;;;3.03;2.80;;;;;;;19.99;73.30;101084.38;4992965;28;103915;-48
2022/06/27 05:28:32;;;;;;;3.33;3.03;;;;;;;20.00;73.26;101083.22;4996384;28;102715;-47
2022/06/27 05:30:59;;;;;;;3.40;3.10;;;;;;;19.99;73.25;101087.94;4991974;28;102510;-49
2022/06/27 05:33:25;;;;;;;4.30;3.05;;;;;;;20.00;73.34;101091.50;4998153;28;102066;-47
2022/06/27 05:35:53;;;;;;;3.38;3.08;;;;;;;20.01;73.32;101095.88;4997089;28;103885;-48
2022/06/27 05:38:20;;;;;;;3.10;2.90;;;;;;;20.00;73.38;101088.75;4998574;28;102527;-49
2022/06/27 05:40:47;;;;;;;3.25;2.95;;;;;;;20.01;73.31;101095.88;4993863;28;102276;-47
2022/06/27 05:43:17;;;;;;;3.08;2.88;;;;;;;20.00;73.07;101086.78;4999257;28;102172;-48
2022/06/27 05:45:44;;;;;;;3.38;3.17;;;;;;;20.02;73.19;101089.25;4992108;28;103853;-47
2022/06/27 05:48:10;;;;;;;3.50;3.20;;;;;;;20.03;73.04;101093.63;4995101;28;102076;-48
2022/06/27 05:50:37;;;;;;;3.33;3.13;;;;;;;20.04;73.05;101086.97;4993266;28;102222;-48
2022/06/27 05:53:06;;;;;;;3.45;3.17;;;;;;;20.05;73.07;101083.03;4994239;28;102526;-50
2022/06/27 05:55:33;;;;;;;3.08;2.88;;;;;;;20.06;73.06;101082.75;4996477;28;103912;-49
2022/06/27 05:58:00;;;;;;;3.88;3.25;;;;;;;20.06;73.01;101092.97;4997409;28;102414;-50
2022/06/27 06:00:28;;;;;;;3.47;3.17;;;;;;;20.07;72.90;101091.84;4996063;28;102415;-48
2022/06/27 06:02:55;;;;;;;3.70;3.40;;;;;;;20.07;73.05;101100.13;4996404;28;102304;-47
2022/06/27 06:05:21;;;;;;;3.30;3.00;;;;;;;20.07;72.99;101100.13;4977100;28;103871;-48
2022/06/27 06:07:48;;;;;;;3.47;3.22;;;;;;;20.07;72.90;101094.59;4994361;28;102424;-47
2022/06/27 06:10:21;;;;;;;4.40;2.92;;;;;;;20.07;72.98;101094.59;4981241;28;102181;-47
2022/06/27 06:12:50;;;;;;;3.33;3.13;;;;;;;20.07;72.90;101094.59;4995164;28;102610;-49
2022/06/27 06:15:19;;;;;;;3.72;3.22;;;;;;;20.07;72.96;101089.06;4994891;28;104201;-48
2022/06/27 06:17:46;;;;;;;3.28;2.97;;;;;;;20.07;72.83;101092.63;4994535;28;102473;-47
2022/06/27 06:20:14;;;;;;;3.10;2.90;;;;;;;20.07;73.02;101094.59;4993424;28;102474;-48
2022/06/27 06:22:41;;;;;;;3.42;3.13;;;;;;;20.07;73.19;101095.41;4997916;28;102124;-48
2022/06/27 06:25:09;;;;;;;4.10;3.42;;;;;;;20.07;72.96;101097.34;4995931;28;103915;-49
2022/06/27 06:27:40;;;;;;;3.22;3.03;;;;;;;20.06;73.14;101093.78;4996882;28;102382;-48
2022/06/27 06:30:08;;;;;;;3.67;3.38;;;;;;;20.07;72.90;101094.59;4996903;28;101943;-48
2022/06/27 06:32:35;;;;;;;3.30;3.10;;;;;;;20.06;73.14;101079.16;4996954;28;104541;-47
2022/06/27 06:35:02;;;;;;;4.13;3.42;;;;;;;20.06;72.99;101079.16;4991650;28;103826;-47
2022/06/27 06:37:31;;;;;;;3.47;3.17;;;;;;;20.07;73.01;101075.25;4977256;28;102315;-48
2022/06/27 06:39:58;;;;;;;3.60;3.38;;;;;;;20.07;73.10;101089.06;4977005;28;102541;-48
2022/06/27 06:42:26;;;;;;;3.60;3.30;;;;;;;20.07;73.10;101083.53;4977601;28;102714;-49
2022/06/27 06:44:55;;;;;;;3.42;3.13;;;;;;;20.07;73.29;101086.31;4976430;28;104046;-48
2022/06/27 06:47:22;;;;;;;3.58;3.22;;;;;;;20.07;72.96;101084.34;4977126;28;101886;-47
2022/06/27 06:49:49;;;;;;;3.80;3.50;;;;;;;20.08;73.23;101090.69;4976911;28;101981;-48
2022/06/27 06:52:17;;;;;;;3.63;3.33;;;;;;;20.08;73.16;101091.50;4977410;28;102289;-48
2022/06/27 06:54:45;;;;;;;3.50;3.20;;;;;;;20.09;72.81;101092.34;4992734;28;103997;-48
2022/06/27 06:57:13;;;;;;;3.65;3.35;;;;;;;20.09;72.99;101089.56;4996072;28;102267;-49
2022/06/27 06:59:40;;;;;;;3.72;3.42;;;;;;;20.11;72.94;101090.84;4996850;28;102317;-48
2022/06/27 07:02:08;;;;;;;3.78;3.47;;;;;;;20.12;72.86;101091.66;4997200;28;102145;-47
2022/06/27 07:04:36;;;;;;;3.47;3.25;;;;;;;20.14;72.96;101094.91;4976710;28;103985;-48
2022/06/27 07:07:03;;;;;;;3.42;3.13;;;;;;;20.14;73.06;101089.38;4976363;28;101907;-48
2022/06/27 07:09:30;;;;;;;3.78;3.47;;;;;;;20.14;72.85;101090.19;4976718;28;102277;-48
2022/06/27 07:11:57;;;;;;;3.60;3.30;;;;;;;20.15;72.98;101093.75;4976725;28;102233;-47
2022/06/27 07:14:26;;;;;;;3.35;3.15;;;;;;;20.17;72.84;101091.50;4976513;28;103965;-48
2022/06/27 07:16:54;;;;;;;3.38;3.15;;;;;;;20.19;72.66;101097.50;4976130;28;102407;-48
2022/06/27 07:19:22;;;;;;;4.18;3.78;;;;;;;20.17;72.92;101089.53;4976160;28;101935;-47
2022/06/27 07:21:49;;;;;;;4.20;3.80;;;;;;;20.19;72.86;101088.41;4981739;28;102275;-47
2022/06/27 07:24:15;;;;;;;4.45;3.40;;;;;;;20.18;72.73;101090.34;4995851;28;103946;-48
2022/06/27 07:26:43;;;;;;;3.78;3.50;;;;;;;20.18;72.92;101093.13;4995688;28;102317;-48
2022/06/27 07:29:10;;;;;;;3.83;3.47;;;;;;;20.18;72.81;101090.34;4996125;28;102261;-47
2022/06/27 07:31:38;;;;;;;4.20;3.80;;;;;;;20.17;72.93;101089.53;4996730;28;102471;-48
2022/06/27 07:34:08;;;;;;;4.28;3.90;;;;;;;20.17;72.96;101088.75;4995778;28;103826;-48
2022/06/27 07:36:38;;;;;;;3.88;3.58;;;;;;;20.16;72.87;101098.19;4995483;28;102412;-48
2022/06/27 07:39:06;;;;;;;;;;;;;;;20.17;73.03;101091.50;4996228;28;102062;-47
2022/06/27 07:41:32;;;;;;;4.05;3.75;;;;;;;20.16;73.02;101092.66;4996095;28;102510;-48
2022/06/27 07:44:01;;;;;;;3.78;3.58;;;;;;;20.17;72.98;101088.75;4995605;28;104206;-48
2022/06/27 07:46:27;;;;;;;4.38;4.07;;;;;;;20.18;72.89;101090.34;4995757;28;102328;-48
2022/06/27 07:48:54;;;;;;;3.92;3.63;;;;;;;20.17;73.03;101089.53;4995550;28;102573;-49
2022/06/27 07:51:20;;;;;;;4.28;3.97;;;;;;;20.19;72.80;101085.63;4996038;28;102191;-47
2022/06/27 07:53:51;;;;;;;4.15;3.85;;;;;;;20.19;72.90;101086.44;4995500;28;103939;-48
2022/06/27 07:56:20;;;;;;;4.70;4.30;;;;;;;20.19;73.00;101086.44;4995384;28;102046;-48
2022/06/27 07:58:48;;;;;;;4.72;4.30;;;;;;;20.18;72.86;101084.81;4992708;28;102173;-48
2022/06/27 08:01:16;;;;;;;4.22;3.92;;;;;;;20.18;73.07;101084.81;4993869;28;102204;-47
2022/06/27 08:03:44;;;;;;;3.90;3.70;;;;;;;20.18;72.94;101087.59;4992067;28;103888;-48
2022/06/27 08:06:16;;;;;;;3.72;3.42;;;;;;;20.29;72.50;101079.78;4992624;28;102793;-48
2022/06/27 08:08:46;;;;;;;22.13;4.70;;;;;;;20.44;72.17;101086.72;4993038;28;102251;-48
2022/06/27 08:11:15;;;;;;;17.13;4.85;;;;;;;20.32;72.39;101085.47;4992919;28;102551;-47
2022/06/27 08:13:45;;;;;;;27.15;6.40;;;;;;;20.29;72.66;101085.31;4989307;28;103977;-47
2022/06/27 08:16:14;;;;;;;22.65;5.80;;;;;;;20.27;72.74;101082.06;4993281;28;102594;-48
2022/06/27 08:18:42;;;;;;;;;;;;;;;20.27;72.66;101082.06;4995548;28;102568;-49
2022/06/27 08:21:10;;;;;;;17.33;5.38;;;;;;;20.26;72.65;101081.22;4995395;28;102409;-48
2022/06/27 08:23:38;;;;;;;8.07;4.25;;;;;;;20.27;72.50;101077.34;4994505;28;103901;-48
2022/06/27 08:26:08;;;;;;;8.13;4.28;;;;;;;20.27;72.56;101085.63;4992268;28;102420;-47
2022/06/27 08:28:37;;;;;;;12.35;4.15;;;;;;;20.27;72.58;101085.63;4988815;28;102677;-48
2022/06/27 08:31:05;;;;;;;10.27;5.07;;;;;;;20.29;72.63;101088.06;4958558;28;102288;-47
2022/06/27 08:33:32;;;;;;;7.63;4.77;;;;;;;20.30;72.33;101085.00;4979736;28;104243;-49
2022/06/27 08:36:00;;;;;;;7.20;4.80;;;;;;;20.30;72.49;101068.41;4976184;28;102505;-46
2022/06/27 08:38:28;;;;;;;9.77;4.60;;;;;;;20.30;72.33;101081.38;4974607;28;102237;-47
2022/06/27 08:40:55;;;;;;;6.45;4.68;;;;;;;20.31;72.25;101072.78;4975521;28;102418;-48
2022/06/27 08:43:23;;;;;;;8.20;4.93;;;;;;;20.32;72.45;101079.94;4977629;28;104154;-47
2022/06/27 08:45:52;;;;;;;5.22;4.75;;;;;;;20.33;72.45;101081.53;4995090;28;102345;-47
2022/06/27 08:48:19;;;;;;;7.07;4.65;;;;;;;20.35;72.42;101084.00;4974382;28;102558;-48
2022/06/27 08:50:48;;;;;;;8.30;5.03;;;;;;;20.35;72.45;101084.81;4989100;28;102244;-47
2022/06/27 08:53:17;;;;;;;7.60;5.20;;;;;;;20.36;72.35;101075.38;4991709;28;104071;-47
2022/06/27 08:55:46;;;;;;;5.75;4.32;;;;;;;20.37;72.39;101071.44;4993998;28;102632;-47
2022/06/27 08:58:13;;;;;;;;;;;;;;;20.38;72.43;101066.75;4994601;28;101979;-48
2022/06/27 09:00:45;;;;;;;5.37;4.37;;;;;;;20.37;72.08;101063.16;4995710;28;102723;-47
2022/06/27 09:03:17;;;;;;;4.82;4.32;;;;;;;20.39;72.29;101068.38;4992892;28;103882;-47
2022/06/27 09:05:55;;;;;;;6.13;4.68;;;;;;;20.40;72.17;101056.97;4994298;28;102721;-47
2022/06/27 09:08:22;;;;;;;6.38;4.15;;;;;;;20.40;72.33;101059.75;4992265;28;102733;-47
2022/06/27 09:10:49;;;;;;;7.00;4.50;;;;;;;20.44;72.01;101064.63;4992809;28;102484;-47
2022/06/27 09:13:17;;;;;;;5.28;4.65;;;;;;;20.41;72.31;101057.78;4992472;28;104062;-47
2022/06/27 09:15:49;;;;;;;5.93;4.78;;;;;;;20.42;72.15;101061.38;4995099;28;102341;-48
2022/06/27 09:18:20;;;;;;;7.60;4.80;;;;;;;20.40;72.27;101054.22;4992717;28;102378;-48
2022/06/27 09:20:52;;;;;;;6.10;4.60;;;;;;;20.40;72.02;101048.69;4995080;28;102301;-48
2022/06/27 09:24:08;;;;;;;4.95;4.43;;;;;;;20.42;72.14;101037.31;4990993;28;107948;-50
2022/06/27 09:26:28;;;;;;;5.30;4.72;;;;;;;20.40;72.04;101039.56;4988974;28;102218;-48
2022/06/27 09:28:56;;;;;;;4.75;4.07;;;;;;;20.43;72.22;101041.69;4995656;28;102416;-48
2022/06/27 09:31:35;;;;;;;5.72;5.18;;;;;;;20.43;71.91;101035.34;4998104;28;102325;-47
2022/06/27 09:34:08;;;;;;;5.90;4.45;;;;;;;20.44;71.96;101042.50;4994718;28;103890;-47
2022/06/27 09:36:36;;;;;;;5.15;4.30;;;;;;;20.46;71.98;101029.16;4996059;28;102261;-48
2022/06/27 09:39:04;;;;;;;4.78;4.15;;;;;;;20.47;72.07;101030.78;4993899;28;102538;-47
2022/06/27 09:41:33;;;;;;;4.15;3.75;;;;;;;20.45;71.84;101033.88;4996350;28;102270;-47
2022/06/27 09:44:06;;;;;;;5.55;4.30;;;;;;;20.43;72.05;101024.28;4997057;28;103720;-47
2022/06/27 09:46:42;;;;;;;4.57;4.18;;;;;;;20.44;71.95;101025.91;4996817;28;102517;-49
2022/06/27 09:49:15;;;;;;;5.28;4.25;;;;;;;20.40;71.83;101023.81;4996357;28;101971;-48
2022/06/27 09:51:42;;;;;;;4.70;4.20;;;;;;;20.45;71.86;101022.00;4994755;28;102495;-47
2022/06/27 09:54:16;;;;;;;4.07;3.67;;;;;;;20.44;71.82;101020.38;4996515;28;104155;-47
2022/06/27 09:56:45;;;;;;;4.05;3.65;;;;;;;20.48;71.71;101026.88;4997205;28;102352;-47
2022/06/27 09:59:12;;;;;;;5.38;4.07;;;;;;;20.45;72.29;101011.78;4995956;28;102106;-48
2022/06/27 10:01:40;;;;;;;4.72;4.10;;;;;;;20.47;71.63;101014.19;4998122;28;102620;-47
2022/06/27 10:04:08;;;;;;;6.00;4.28;;;;;;;20.46;71.65;101004.28;4995894;28;103883;-48
2022/06/27 10:06:37;;;;;;;4.75;4.07;;;;;;;20.48;71.54;101001.97;4995902;28;102506;-47
2022/06/27 10:09:08;;;;;;;4.97;4.45;;;;;;;20.56;71.11;100993.69;4995719;28;104570;-48
2022/06/27 10:11:36;;;;;;;4.53;3.75;;;;;;;20.53;71.48;100999.09;4997237;28;102321;-48
2022/06/27 10:14:27;;;;;;;4.57;3.72;;;;;;;20.52;71.59;101005.75;4996214;28;103991;-49
2022/06/27 10:16:56;;;;;;;4.53;3.75;;;;;;;20.49;71.71;101009.97;4956633;28;102462;-47
2022/06/27 10:19:25;;;;;;;3.70;3.40;;;;;;;20.46;71.66;101002.34;4985537;28;102026;-47
2022/06/27 10:21:54;;;;;;;4.28;3.45;;;;;;;20.50;71.48;101008.03;4997487;28;102567;-47
2022/06/27 10:24:32;;;;;;;;;;;;;;;20.50;71.68;101002.50;4995738;28;104002;-48
2022/06/27 10:27:03;;;;;;;4.05;3.75;;;;;;;20.48;71.61;101004.75;4996308;28;103517;-48
2022/06/27 10:29:39;;;;;;;3.85;3.47;;;;;;;20.48;71.52;101005.56;4996897;28;102418;-47
2022/06/27 10:32:09;;;;;;;3.88;3.58;;;;;;;20.49;71.59;101009.16;4996939;28;102448;-47
2022/06/27 10:35:06;;;;;;;4.28;3.72;;;;;;;20.54;71.26;101009.00;4996123;28;103958;-48
2022/06/27 10:37:36;;;;;;;4.00;3.70;;;;;;;20.53;70.93;101008.19;4996433;28;101944;-48
2022/06/27 10:40:51;;;;;;;4.18;3.78;;;;;;;20.52;70.92;101011.25;4994744;28;102057;-47
2022/06/27 10:43:45;;;;;;;4.47;4.03;;;;;;;20.58;70.26;101009.94;4976966;28;102511;-47
2022/06/27 10:46:51;;;;;;;5.13;3.72;;;;;;;20.64;70.06;101014.97;4976742;28;104071;-48
2022/06/27 10:49:26;;;;;;;4.05;3.72;;;;;;;20.64;70.01;101012.19;4995180;28;102471;-48
2022/06/27 10:52:13;;;;;;;3.80;3.50;;;;;;;20.63;69.75;101004.25;4992977;28;102546;-47
2022/06/27 10:54:43;;;;;;;3.92;3.53;;;;;;;20.66;69.65;101016.59;4994808;28;102242;-48
2022/06/27 10:57:11;;;;;;;3.53;3.13;;;;;;;20.71;69.04;101013.66;4974609;28;103875;-47
2022/06/27 10:59:58;;;;;;;3.75;3.53;;;;;;;20.68;69.13;101009.59;4976553;28;102422;-47
2022/06/27 11:02:27;;;;;;;3.80;3.50;;;;;;;20.63;69.99;101007.00;4975193;28;102538;-47
2022/06/27 11:04:55;;;;;;;3.97;3.60;;;;;;;20.59;70.03;101011.56;4994349;28;102237;-47
2022/06/27 11:07:22;;;;;;;3.95;3.65;;;;;;;20.59;70.53;101001.34;4995557;28;103916;-47
2022/06/27 11:09:50;;;;;;;6.00;3.22;;;;;;;20.64;69.96;101008.63;4995940;28;102136;-48
2022/06/27 11:12:20;;;;;;;3.92;3.63;;;;;;;20.65;70.06;101004.72;4992818;28;102161;-48
2022/06/27 11:14:48;;;;;;;5.15;3.40;;;;;;;20.62;69.47;101006.19;4995282;28;102359;-48
2022/06/27 11:17:32;;;;;;;3.60;3.30;;;;;;;20.55;70.69;100999.56;4995064;28;104003;-47
2022/06/27 11:20:21;;;;;;;3.15;2.88;;;;;;;20.55;70.80;100994.81;4996711;28;101943;-47
2022/06/27 11:22:49;;;;;;;;;;;;;;;20.56;70.77;100990.13;4991184;28;105005;-49
2022/06/27 11:25:20;;;;;;;3.43;3.13;;;;;;;20.56;70.50;101001.19;4994685;28;102312;-48
2022/06/27 11:27:50;;;;;;;3.38;2.92;;;;;;;20.57;70.52;100986.22;4993902;28;103953;-48
2022/06/27 11:33:30;;;;;;;4.00;3.60;;;;;;;20.55;70.52;100999.56;4995085;28;102066;-47